Indialantic, Florida
Current Conditions -  °F | °C
As of 4:00 PM on Saturday 22 Nov 2014 (Local Time) from KMLB Reporting Station
Haze Haze  
Wind Chill: 22°   Ceiling: 2100
Heat Index: 22°   Visibility: 3mi
Dew Point: 20°   Wind: 16mph
Humidity: 87%   Direction: 90°E
Pressure: 30.14"   Gusts: 25mph
Location:  28.09°N, 80.57°W
Report Text: KMLB 222100Z 09014G22KT 3SM BR SCT007 BKN021 OVC050 22/20 A3014 RMK AO2 T02220200
Loading
Personal Weather Stations






























Interactive Weather Map New forecast layout! Learn more

10-Day Weather Forecast

Advertisements
Track Severe Weather on mobile